Time;durP1;ratioP1;P1;durP2;ratioP2;P2;SDS_P1;SDS_P2;PMS_P1;PMS_P2;Temp;Humidity;BMP_temperature;BMP_pressure;BME280_temperature;BME280_humidity;BME280_pressure;Samples;Min_cycle;Max_cycle;Signal;HPM_P1;HPM_P2
2023/04/22 00:01:16;;;;;;;11.07;4.27;;;;;;;-143.84;53.45;45155.69;4972516;28;20496;-68
2023/04/22 00:03:44;;;;;;;12.35;4.53;;;;;;;-143.84;53.62;45140.47;4971240;28;20454;-68
2023/04/22 00:06:11;;;;;;;19.23;4.70;;;;;;;-143.84;53.38;45150.00;4971932;28;20203;-68
2023/04/22 00:08:39;;;;;;;15.07;3.90;;;;;;;-143.84;53.64;45138.56;4971751;28;20477;-68
2023/04/22 00:11:06;;;;;;;8.80;4.10;;;;;;;-143.84;54.24;45163.31;4971851;28;21154;-68
2023/04/22 00:13:33;;;;;;;12.00;4.23;;;;;;;-143.84;54.00;45163.31;4972160;28;20446;-68
2023/04/22 00:16:00;;;;;;;11.87;5.27;;;;;;;-143.84;53.64;45176.66;4971774;28;20452;-68
2023/04/22 00:18:27;;;;;;;14.00;5.20;;;;;;;-143.84;53.89;45150.00;4972114;28;20477;-68
2023/04/22 00:20:56;;;;;;;15.80;4.30;;;;;;;-143.84;54.26;45167.13;4972215;28;20946;-68
2023/04/22 00:23:23;;;;;;;14.53;3.90;;;;;;;-143.84;54.30;45167.13;4971947;28;20508;-68
2023/04/22 00:25:51;;;;;;;7.23;4.40;;;;;;;-143.84;54.28;45169.03;4971157;28;20501;-68
2023/04/22 00:28:18;;;;;;;12.73;4.13;;;;;;;-143.84;54.31;45150.00;4970829;28;20491;-68
2023/04/22 00:30:45;;;;;;;9.03;4.93;;;;;;;-143.84;54.53;45148.09;4971345;28;20508;-68
2023/04/22 00:33:12;;;;;;;15.00;3.83;;;;;;;-143.84;54.37;45163.31;4971430;28;20866;-68
2023/04/22 00:35:39;;;;;;;6.40;3.80;;;;;;;-143.84;54.27;45142.38;4971302;28;20450;-68
2023/04/22 00:38:08;;;;;;;14.47;4.03;;;;;;;-143.84;54.09;45159.50;4971325;28;20508;-68
2023/04/22 00:40:35;;;;;;;20.90;4.70;;;;;;;-143.84;54.55;45165.22;4971227;28;20521;-68
2023/04/22 00:43:03;;;;;;;18.77;4.80;;;;;;;-143.84;54.71;45159.50;4971505;28;20488;-68
2023/04/22 00:45:30;;;;;;;12.87;4.77;;;;;;;-143.84;54.09;45150.00;4971446;28;20454;-68
2023/04/22 00:47:58;;;;;;;16.53;4.70;;;;;;;-143.84;53.93;45169.03;4971195;28;21121;-68
2023/04/22 00:50:25;;;;;;;20.57;4.57;;;;;;;-143.84;54.23;45150.00;4971732;28;20508;-68
2023/04/22 00:52:52;;;;;;;16.63;5.60;;;;;;;-143.84;54.20;45148.09;4971566;28;20449;-68
2023/04/22 00:55:20;;;;;;;17.15;4.57;;;;;;;-143.84;54.57;45153.81;4971291;28;20496;-68
2023/04/22 00:57:50;;;;;;;18.73;4.70;;;;;;;-143.84;54.88;45161.41;4971601;28;20238;-68
2023/04/22 01:00:19;;;;;;;9.10;3.97;;;;;;;-143.84;55.45;45172.84;4970874;28;20516;-68
2023/04/22 01:02:46;;;;;;;9.80;4.97;;;;;;;-143.84;55.97;45151.91;4970790;28;20441;-68
2023/04/22 01:05:14;;;;;;;23.43;4.30;;;;;;;-143.84;56.51;45163.31;4971280;28;20228;-68
2023/04/22 01:07:41;;;;;;;13.93;4.30;;;;;;;-143.84;57.21;45161.41;4971067;28;20481;-68
2023/04/22 01:10:09;;;;;;;21.40;4.80;;;;;;;-143.84;57.65;45150.00;4971080;28;20992;-68
2023/04/22 01:12:37;;;;;;;20.40;4.23;;;;;;;-143.84;58.22;45161.41;4971175;28;20434;-68
2023/04/22 01:15:05;;;;;;;15.93;4.37;;;;;;;-143.84;58.63;45186.16;4970814;28;20441;-68
2023/04/22 01:17:33;;;;;;;13.57;4.80;;;;;;;-143.84;58.67;45159.50;4970867;28;20788;-68
2023/04/22 01:20:00;;;;;;;10.07;5.20;;;;;;;-143.84;58.95;45167.13;4970993;28;20497;-68
2023/04/22 01:22:35;;;;;;;16.75;5.35;;;;;;;-143.84;58.67;45150.00;4970856;28;20461;-64
2023/04/22 01:25:04;;;;;;;12.60;4.70;;;;;;;-143.84;58.26;45148.09;4971905;28;20254;-63
2023/04/22 01:27:32;;;;;;;15.87;5.03;;;;;;;-143.84;58.34;45155.69;4971515;28;20446;-63
2023/04/22 01:29:59;;;;;;;10.07;4.07;;;;;;;-143.84;57.80;45172.84;4970908;28;20570;-63
2023/04/22 01:32:29;;;;;;;19.03;5.17;;;;;;;-143.84;57.33;45161.41;4971755;28;20496;-63
2023/04/22 01:34:56;;;;;;;13.20;4.23;;;;;;;-143.84;56.65;45159.50;4971387;28;20565;-63
2023/04/22 01:37:23;;;;;;;31.93;5.00;;;;;;;-143.84;56.71;45176.66;4971325;28;20520;-64
2023/04/22 01:39:50;;;;;;;12.82;4.10;;;;;;;-143.84;57.01;45170.94;4971189;28;20450;-64
2023/04/22 01:42:25;;;;;;;13.80;5.40;;;;;;;-143.84;57.74;45146.19;4971688;28;20194;-63
2023/04/22 01:44:52;;;;;;;11.03;4.10;;;;;;;-143.84;58.86;45170.94;4971275;28;20500;-63
2023/04/22 01:47:33;;;;;;;13.57;4.80;;;;;;;-143.84;59.41;45163.31;4970969;28;20504;-63
2023/04/22 01:50:03;;;;;;;14.03;3.90;;;;;;;-143.84;59.58;45178.56;4971463;28;20489;-63
2023/04/22 01:52:31;;;;;;;17.47;5.40;;;;;;;-143.84;60.05;45163.31;4970684;28;20437;-63
2023/04/22 01:55:04;;;;;;;8.47;4.37;;;;;;;-143.84;60.18;45170.94;4970616;28;20464;-63
2023/04/22 01:57:35;;;;;;;12.03;4.23;;;;;;;-143.84;60.72;45170.94;4971439;28;20874;-63
2023/04/22 02:00:11;;;;;;;8.93;3.95;;;;;;;-143.84;60.92;45155.69;4971093;28;20526;-63
2023/04/22 02:02:38;;;;;;;7.77;3.93;;;;;;;-143.84;60.85;45159.50;4971111;28;20201;-63
2023/04/22 02:05:07;;;;;;;10.70;4.47;;;;;;;-143.84;60.68;45180.47;4971263;28;20913;-63
2023/04/22 02:07:37;;;;;;;13.43;4.90;;;;;;;-143.84;60.99;45199.50;4971347;28;20803;-63
2023/04/22 02:10:08;;;;;;;15.05;4.95;;;;;;;-143.84;60.79;45161.41;4970991;28;20445;-63
2023/04/22 02:12:36;;;;;;;20.00;5.10;;;;;;;-143.84;61.20;45155.69;4971363;28;20224;-63
2023/04/22 02:15:04;;;;;;;9.40;4.13;;;;;;;-143.84;61.33;45159.50;4970887;28;20504;-63
2023/04/22 02:17:37;;;;;;;18.87;5.50;;;;;;;-143.84;61.54;45167.13;4970248;28;20539;-64
2023/04/22 02:20:06;;;;;;;7.07;4.20;;;;;;;-143.84;61.52;45170.94;4970496;28;20875;-63
2023/04/22 02:22:33;;;;;;;24.37;4.60;;;;;;;-143.84;61.96;45159.50;4970709;28;20450;-63
2023/04/22 02:25:01;;;;;;;14.07;5.13;;;;;;;-143.84;62.09;45178.56;4970674;28;20500;-63
2023/04/22 02:27:30;;;;;;;20.67;5.20;;;;;;;-143.84;62.05;45159.50;4973643;28;20430;-63
2023/04/22 02:30:02;;;;;;;16.75;4.90;;;;;;;-143.84;62.25;45146.19;4974586;28;20473;-63
2023/04/22 02:32:30;;;;;;;10.18;4.28;;;;;;;-143.84;61.95;45153.81;4974641;28;20209;-63
2023/04/22 02:34:57;;;;;;;18.70;4.63;;;;;;;-143.84;61.83;45159.50;4974675;28;20202;-63
2023/04/22 02:37:25;;;;;;;15.27;4.13;;;;;;;-143.84;61.78;45150.00;4974542;28;20935;-63
2023/04/22 02:39:56;;;;;;;11.50;4.20;;;;;;;-143.84;62.26;45174.75;4974572;28;21030;-63
2023/04/22 02:42:26;;;;;;;14.30;4.70;;;;;;;-143.84;61.95;45151.91;4974589;28;20811;-63
2023/04/22 02:44:56;;;;;;;12.55;5.93;;;;;;;-143.84;62.17;45176.66;4974428;28;20524;-63
2023/04/22 02:47:25;;;;;;;12.40;4.40;;;;;;;-143.84;61.81;45144.28;4974621;28;20202;-63
2023/04/22 02:49:52;;;;;;;14.53;4.90;;;;;;;-143.84;62.08;45148.09;4973744;28;20819;-63
2023/04/22 02:52:20;;;;;;;11.97;4.97;;;;;;;-143.84;62.23;45148.09;4974355;28;20848;-63
2023/04/22 02:54:52;;;;;;;17.77;5.23;;;;;;;-143.84;62.60;45170.94;4974178;28;20468;-63
2023/04/22 02:57:31;;;;;;;15.83;4.33;;;;;;;-143.84;62.23;45172.84;4974439;28;20446;-63
2023/04/22 02:59:59;;;;;;;15.90;4.87;;;;;;;-143.84;62.37;45167.13;4974318;28;20504;-63
2023/04/22 03:02:30;;;;;;;11.33;4.80;;;;;;;-143.84;62.73;45146.19;4974215;28;20451;-63
2023/04/22 03:04:59;;;;;;;17.17;5.00;;;;;;;-143.84;62.62;45169.03;4974022;28;20441;-64
2023/04/22 03:07:30;;;;;;;23.77;5.77;;;;;;;-143.84;62.71;45170.94;4974193;28;20441;-63
2023/04/22 03:09:58;;;;;;;15.87;4.90;;;;;;;-143.84;62.71;45167.13;4974445;28;20496;-63
2023/04/22 03:12:25;;;;;;;16.20;4.90;;;;;;;-143.84;63.03;45170.94;4974237;28;20441;-63
2023/04/22 03:14:52;;;;;;;7.72;4.90;;;;;;;-143.84;62.77;45163.31;4973987;28;20504;-63
2023/04/22 03:17:19;;;;;;;13.77;5.53;;;;;;;-143.84;62.39;45146.19;4973839;28;20630;-63
2023/04/22 03:19:48;;;;;;;15.73;6.07;;;;;;;-143.84;62.12;45161.41;4973306;28;20489;-63
2023/04/22 03:22:15;;;;;;;6.83;4.90;;;;;;;-143.84;62.00;45159.50;4973881;28;20481;-63
2023/04/22 03:24:42;;;;;;;12.53;5.20;;;;;;;-143.84;61.91;45140.47;4973713;28;21261;-63
2023/04/22 03:27:10;;;;;;;6.13;5.00;;;;;;;-143.84;61.81;45161.41;4973794;28;20512;-63
2023/04/22 03:29:37;;;;;;;16.13;4.80;;;;;;;-143.84;61.49;45189.97;4973077;28;20542;-63
2023/04/22 03:32:04;;;;;;;22.70;4.80;;;;;;;-143.84;61.30;45170.94;4973128;28;20496;-63
2023/04/22 03:34:31;;;;;;;13.37;5.03;;;;;;;-143.84;61.36;45172.84;4973085;28;21119;-63
2023/04/22 03:37:00;;;;;;;15.67;5.27;;;;;;;-143.84;61.38;45148.09;4972989;28;20453;-63
2023/04/22 03:39:27;;;;;;;6.90;4.70;;;;;;;-143.84;62.06;45159.50;4973017;28;20441;-63
2023/04/22 03:41:54;;;;;;;13.90;5.37;;;;;;;-143.84;62.49;45159.50;4972513;28;20916;-63
2023/04/22 03:44:21;;;;;;;17.03;5.83;;;;;;;-143.84;62.90;45161.41;4972232;28;20519;-63
2023/04/22 03:46:48;;;;;;;19.17;4.90;;;;;;;-143.84;62.37;45159.50;4972975;28;20441;-63
2023/04/22 03:49:15;;;;;;;8.53;5.13;;;;;;;-143.84;63.03;45176.66;4972880;28;20552;-63
2023/04/22 03:51:42;;;;;;;17.60;4.80;;;;;;;-143.84;62.64;45127.13;4973020;28;20497;-63
2023/04/22 03:54:11;;;;;;;11.20;5.20;;;;;;;-143.84;62.16;45150.00;4972943;28;20936;-63
2023/04/22 03:56:38;;;;;;;9.83;5.33;;;;;;;-143.84;61.11;45163.31;4973649;28;20191;-63
2023/04/22 03:59:05;;;;;;;16.03;5.37;;;;;;;-143.84;59.39;45150.00;4973339;28;20496;-63
2023/04/22 04:01:32;;;;;;;9.03;5.40;;;;;;;-143.84;58.36;45146.19;4973259;28;20441;-63
2023/04/22 04:03:59;;;;;;;12.93;5.33;;;;;;;-143.84;56.63;45169.03;4973113;28;20442;-63
2023/04/22 04:06:26;;;;;;;10.63;5.32;;;;;;;-143.84;55.40;45150.00;4972585;28;20469;-63
2023/04/22 04:08:54;;;;;;;25.60;5.37;;;;;;;-143.84;54.31;45130.94;4972355;28;20343;-63
2023/04/22 04:11:22;;;;;;;17.70;5.60;;;;;;;-143.84;54.02;45140.47;4972777;28;20449;-64
2023/04/22 04:13:49;;;;;;;8.10;5.20;;;;;;;-143.84;53.68;45180.47;4973814;28;20449;-63
2023/04/22 04:16:16;;;;;;;10.37;5.63;;;;;;;-143.84;53.33;45144.28;4973899;28;20517;-64
2023/04/22 04:18:43;;;;;;;12.52;5.13;;;;;;;-143.84;53.15;45134.75;4973761;28;20559;-64
2023/04/22 04:21:11;;;;;;;6.17;4.53;;;;;;;-143.84;52.43;45132.84;4973820;28;20199;-63
2023/04/22 04:23:38;;;;;;;12.60;4.67;;;;;;;-143.84;51.93;45129.03;4973425;28;20495;-64
2023/04/22 04:26:05;;;;;;;14.65;4.97;;;;;;;-143.84;52.30;45138.56;4973808;28;20449;-64
2023/04/22 04:28:34;;;;;;;10.90;5.37;;;;;;;-143.84;52.71;45148.09;4973685;28;20209;-63
2023/04/22 04:31:02;;;;;;;15.00;4.50;;;;;;;-143.84;52.35;45127.13;4973656;28;20463;-63
2023/04/22 04:33:31;;;;;;;14.07;5.47;;;;;;;-143.84;51.75;45140.47;4972371;28;20524;-63
2023/04/22 04:35:58;;;;;;;19.98;5.60;;;;;;;-143.84;51.31;45151.91;4972830;28;20507;-64
2023/04/22 04:38:26;;;;;;;15.20;4.67;;;;;;;-143.84;49.88;45150.00;4971862;28;20237;-64
2023/04/22 04:40:53;;;;;;;9.18;5.03;;;;;;;-143.84;48.61;45151.91;4972160;28;20891;-64
2023/04/22 04:43:24;;;;;;;9.30;4.68;;;;;;;-143.84;47.97;45100.47;4971726;28;20660;-64
2023/04/22 04:45:53;;;;;;;13.60;5.17;;;;;;;-143.84;47.20;45119.53;4971971;28;20249;-63
2023/04/22 04:48:23;;;;;;;11.83;4.60;;;;;;;-143.84;47.01;45144.28;4970440;28;20871;-63
2023/04/22 04:50:52;;;;;;;16.42;5.32;;;;;;;-143.84;46.73;45138.56;4970372;28;20853;-64
2023/04/22 04:53:21;;;;;;;6.10;4.50;;;;;;;-143.84;45.61;45111.91;4973353;28;20201;-65
2023/04/22 04:55:49;;;;;;;13.47;5.13;;;;;;;-143.84;45.47;45119.53;4991409;28;20448;-66
2023/04/22 04:58:16;;;;;;;13.00;4.90;;;;;;;-143.84;44.64;45102.38;4990761;28;20449;-66
2023/04/22 05:00:43;;;;;;;6.87;4.67;;;;;;;-143.84;44.72;45100.47;4991610;28;20927;-66
2023/04/22 05:03:12;;;;;;;13.63;5.07;;;;;;;-143.84;44.27;45127.13;4991320;28;20450;-65
2023/04/22 05:05:39;;;;;;;16.57;4.93;;;;;;;-143.84;44.16;45127.13;4990855;28;20471;-65
2023/04/22 05:08:06;;;;;;;10.90;5.07;;;;;;;-143.84;43.77;45090.97;4990864;28;20436;-65
2023/04/22 05:10:33;;;;;;;17.10;5.50;;;;;;;-143.84;43.29;45110.00;4990668;28;20539;-65
2023/04/22 05:13:00;;;;;;;10.50;4.87;;;;;;;-143.84;43.02;45098.56;4990798;28;20940;-65
2023/04/22 05:15:28;;;;;;;11.80;5.33;;;;;;;-143.84;42.94;45085.25;4990808;28;20450;-66
2023/04/22 05:17:55;;;;;;;16.93;5.50;;;;;;;-143.84;42.91;45096.66;4990732;28;20485;-66
2023/04/22 05:20:23;;;;;;;6.83;4.90;;;;;;;-143.84;42.35;45106.19;4991000;28;20445;-65
2023/04/22 05:22:50;;;;;;;19.90;5.20;;;;;;;-143.84;42.23;45098.56;4990652;28;20542;-64
2023/04/22 05:25:18;;;;;;;10.00;4.73;;;;;;;-143.84;42.37;45083.34;4990719;28;20440;-65
2023/04/22 05:27:45;;;;;;;7.90;5.37;;;;;;;-143.84;42.36;45130.94;4990021;28;20440;-65
2023/04/22 05:30:12;;;;;;;20.03;5.90;;;;;;;-143.84;42.27;45111.91;4989987;28;20484;-65
2023/04/22 05:32:39;;;;;;;13.20;4.90;;;;;;;-143.84;42.58;45110.00;4990249;28;20439;-65
2023/04/22 05:35:09;;;;;;;18.07;6.10;;;;;;;-143.84;43.14;45121.44;4990742;28;20473;-65
2023/04/22 05:37:37;;;;;;;12.60;5.70;;;;;;;-143.84;43.67;45106.19;4991761;28;20438;-64
2023/04/22 05:40:05;;;;;;;16.00;4.72;;;;;;;-143.84;43.99;45104.28;4991988;28;20207;-64
2023/04/22 05:42:32;;;;;;;14.30;4.55;;;;;;;-143.84;44.17;45092.88;4991062;28;20258;-65
2023/04/22 05:44:59;;;;;;;11.53;5.07;;;;;;;-143.84;44.31;45104.28;4990640;28;20205;-65
2023/04/22 05:47:28;;;;;;;10.60;5.63;;;;;;;-143.84;43.56;45098.56;4990395;28;20502;-65
2023/04/22 05:49:55;;;;;;;21.00;5.10;;;;;;;-143.84;44.20;45096.66;4990324;28;20488;-65
2023/04/22 05:52:22;;;;;;;9.07;4.90;;;;;;;-143.84;43.64;45083.34;4990984;28;20433;-64
2023/04/22 05:54:50;;;;;;;9.87;5.17;;;;;;;-143.84;43.18;45100.47;4989957;28;20436;-64
2023/04/22 05:57:18;;;;;;;18.90;5.73;;;;;;;-143.84;42.08;45102.38;4989912;28;20531;-65
2023/04/22 05:59:45;;;;;;;9.53;4.87;;;;;;;-143.84;41.84;45089.06;4989925;28;20452;-64
2023/04/22 06:02:12;;;;;;;12.95;5.05;;;;;;;-143.84;41.60;45106.19;4989646;28;20500;-64
2023/04/22 06:04:39;;;;;;;13.67;5.73;;;;;;;-143.84;41.54;45090.97;4990134;28;20205;-64
2023/04/22 06:07:06;;;;;;;12.83;5.40;;;;;;;-143.84;42.01;45115.72;4990284;28;20440;-65
2023/04/22 06:09:33;;;;;;;7.83;4.73;;;;;;;-143.84;42.18;45108.09;4990102;28;20480;-65
2023/04/22 06:12:02;;;;;;;6.77;4.93;;;;;;;-143.84;41.98;45121.44;4990462;28;20438;-65
2023/04/22 06:14:29;;;;;;;10.87;4.20;;;;;;;-143.84;42.60;45102.38;4989623;28;20445;-65
2023/04/22 06:16:56;;;;;;;11.47;4.70;;;;;;;-143.84;43.15;45115.72;4989773;28;20547;-66
2023/04/22 06:19:23;;;;;;;11.60;4.50;;;;;;;-143.84;43.40;45123.34;4989496;28;20539;-66
2023/04/22 06:21:51;;;;;;;22.67;4.30;;;;;;;-143.84;43.15;45127.13;4989313;28;20440;-65
2023/04/22 06:24:18;;;;;;;13.80;4.37;;;;;;;-143.84;43.49;45123.34;4989250;28;20459;-65
2023/04/22 06:26:45;;;;;;;12.70;4.03;;;;;;;-143.84;43.23;45110.00;4989410;28;20477;-65
2023/04/22 06:29:14;;;;;;;31.77;4.37;;;;;;;-143.84;42.96;45110.00;4989622;28;20630;-65
2023/04/22 06:31:41;;;;;;;16.70;4.47;;;;;;;-143.84;43.26;45108.09;4989417;28;20508;-65
2023/04/22 06:34:08;;;;;;;12.63;4.28;;;;;;;-143.84;43.33;45110.00;4989519;28;20483;-65
2023/04/22 06:36:37;;;;;;;16.33;4.13;;;;;;;-143.84;44.08;45115.72;4989532;28;20741;-65
2023/04/22 06:39:04;;;;;;;4.38;3.40;;;;;;;-143.84;43.74;45115.72;4989658;28;20254;-65
2023/04/22 06:41:32;;;;;;;5.97;3.47;;;;;;;-143.84;43.95;45130.94;4989948;28;20209;-65
2023/04/22 06:43:59;;;;;;;10.53;4.30;;;;;;;-143.84;44.39;45102.38;4989758;28;20448;-65
2023/04/22 06:46:27;;;;;;;8.60;3.40;;;;;;;-143.84;44.46;45153.81;4972372;28;20449;-65
2023/04/22 06:48:54;;;;;;;11.77;4.27;;;;;;;-143.84;43.74;45089.06;4970647;28;20983;-65
2023/04/22 06:51:21;;;;;;;14.20;4.37;;;;;;;-143.84;44.44;45117.63;4971689;28;20497;-65
2023/04/22 06:53:49;;;;;;;12.63;3.90;;;;;;;-143.84;44.90;45119.53;4969591;28;21023;-65
2023/04/22 06:56:16;;;;;;;7.57;3.60;;;;;;;-143.84;44.81;45134.75;4970009;28;20873;-65
2023/04/22 06:58:43;;;;;;;9.93;3.50;;;;;;;-143.84;45.33;45113.81;4970186;28;20503;-65
2023/04/22 07:01:10;;;;;;;5.20;3.63;;;;;;;-143.84;45.35;45129.03;4970369;28;20904;-65
2023/04/22 07:03:39;;;;;;;9.00;3.67;;;;;;;-143.84;45.42;45132.84;4969902;28;20493;-65
2023/04/22 07:06:06;;;;;;;11.80;3.80;;;;;;;-143.84;46.23;45136.66;4970231;28;20450;-66
2023/04/22 07:08:33;;;;;;;11.30;3.33;;;;;;;-143.84;45.89;45100.47;4970490;28;20442;-65
2023/04/22 07:11:00;;;;;;;11.90;3.20;;;;;;;-143.84;45.92;45125.22;4970275;28;20485;-66
2023/04/22 07:13:32;;;;;;;17.00;2.80;;;;;;;-143.84;46.22;45117.63;4972915;28;20456;-66
2023/04/22 07:16:00;;;;;;;10.53;3.07;;;;;;;-143.84;45.35;45130.94;4973334;28;20266;-66
2023/04/22 07:18:27;;;;;;;12.90;4.43;;;;;;;-143.84;46.13;45123.34;4972795;28;20493;-66
2023/04/22 07:20:55;;;;;;;6.55;3.50;;;;;;;-143.84;46.01;45111.91;4973756;28;20976;-66
2023/04/22 07:23:22;;;;;;;16.63;3.50;;;;;;;-143.84;46.60;45098.56;4982112;28;20194;-66
2023/04/22 07:25:50;;;;;;;8.00;3.30;;;;;;;-143.84;46.99;45121.44;4979604;28;20202;-66
2023/04/22 07:28:17;;;;;;;14.83;3.10;;;;;;;-143.84;46.09;45136.66;4973645;28;20496;-65
2023/04/22 07:30:44;;;;;;;9.80;3.73;;;;;;;-143.84;46.01;45117.63;4973760;28;20484;-65
2023/04/22 07:33:12;;;;;;;10.90;4.27;;;;;;;-143.84;46.87;45138.56;4973404;28;20442;-65
2023/04/22 07:35:39;;;;;;;16.97;6.77;;;;;;;-143.84;46.24;45110.00;4973153;28;20987;-65
2023/04/22 07:38:08;;;;;;;10.77;3.00;;;;;;;-143.84;46.06;45096.66;4973754;28;20458;-66
2023/04/22 07:40:35;;;;;;;18.23;3.60;;;;;;;-143.84;46.90;45127.13;4973689;28;20206;-66
2023/04/22 07:43:02;;;;;;;13.47;5.70;;;;;;;-143.84;46.89;45119.53;4972851;28;20450;-67
2023/04/22 07:45:29;;;;;;;11.00;5.03;;;;;;;-143.84;47.20;45127.13;4972831;28;20447;-66
2023/04/22 07:47:56;;;;;;;9.67;3.83;;;;;;;-143.84;46.41;45129.03;4972952;28;20613;-67
2023/04/22 07:50:24;;;;;;;4.73;2.90;;;;;;;-143.84;47.47;45096.66;4973040;28;20536;-67
2023/04/22 07:52:51;;;;;;;14.80;3.15;;;;;;;-143.84;47.92;45153.81;4973018;28;20887;-68
2023/04/22 07:55:19;;;;;;;3.57;2.80;;;;;;;-143.84;47.66;45121.44;4972391;28;20207;-62
2023/04/22 07:57:46;;;;;;;8.10;4.03;;;;;;;-143.84;47.71;45094.78;4972628;28;20445;-64
2023/04/22 08:00:15;;;;;;;16.37;4.57;;;;;;;-143.84;45.98;45129.03;4982949;28;20456;-63
2023/04/22 08:02:42;;;;;;;10.10;3.00;;;;;;;-143.84;44.77;45083.34;4991996;28;20436;-63
2023/04/22 08:05:10;;;;;;;6.97;3.50;;;;;;;-143.84;44.75;45085.25;4992054;28;20838;-62
2023/04/22 08:07:37;;;;;;;24.37;3.70;;;;;;;-143.84;42.08;45089.06;4991900;28;20449;-62
2023/04/22 08:10:06;;;;;;;19.63;4.70;;;;;;;-143.84;43.93;45083.34;4991727;28;20480;-63
2023/04/22 08:12:35;;;;;;;13.47;3.43;;;;;;;-143.84;43.13;45096.66;4991452;28;20452;-63
2023/04/22 08:15:02;;;;;;;6.57;2.80;;;;;;;-143.84;42.18;45090.97;4991508;28;20444;-63
2023/04/22 08:17:29;;;;;;;9.70;3.37;;;;;;;-143.84;40.99;45075.72;4991772;28;20515;-63
2023/04/22 08:19:56;;;;;;;6.47;3.10;;;;;;;-143.84;41.32;45092.88;4991789;28;20469;-63
2023/04/22 08:22:24;;;;;;;6.67;3.00;;;;;;;-143.84;40.57;45079.53;4991765;28;20499;-63
2023/04/22 08:24:51;;;;;;;6.23;2.70;;;;;;;-143.84;39.99;45054.78;4990470;28;20456;-63
2023/04/22 08:27:19;;;;;;;10.47;3.17;;;;;;;-143.84;39.92;45071.91;4991458;28;20437;-63
2023/04/22 08:29:47;;;;;;;9.40;3.75;;;;;;;-143.84;38.72;45085.25;4991111;28;20453;-63
2023/04/22 08:32:14;;;;;;;11.60;2.50;;;;;;;-143.84;38.36;45073.81;4991658;28;20203;-63
2023/04/22 08:34:41;;;;;;;10.90;3.00;;;;;;;-143.84;38.49;45060.50;4991544;28;20200;-63
2023/04/22 08:37:08;;;;;;;24.83;3.60;;;;;;;-143.84;38.86;45068.13;4991323;28;20952;-62
2023/04/22 08:39:36;;;;;;;5.50;2.70;;;;;;;-143.84;37.04;45071.91;4991485;28;20494;-63
2023/04/22 08:42:03;;;;;;;7.57;2.90;;;;;;;-143.84;37.28;45047.16;4990990;28;21025;-63
2023/04/22 08:44:31;;;;;;;11.27;3.13;;;;;;;-143.84;37.15;45075.72;4991115;28;20489;-63
2023/04/22 08:47:00;;;;;;;5.65;3.00;;;;;;;-143.84;38.00;45087.16;4990863;28;20447;-63
2023/04/22 08:49:30;;;;;;;9.40;3.13;;;;;;;-143.84;36.84;45062.41;4990973;28;20205;-63
2023/04/22 08:51:57;;;;;;;14.27;4.10;;;;;;;-143.84;35.68;45064.31;4991080;28;20550;-63
2023/04/22 08:54:24;;;;;;;13.80;2.80;;;;;;;-143.84;36.20;45070.00;4990991;28;20863;-63
2023/04/22 08:56:52;;;;;;;10.77;2.70;;;;;;;-143.84;37.34;45090.97;4990744;28;20467;-63
2023/04/22 08:59:22;;;;;;;12.20;2.70;;;;;;;-143.84;37.68;45068.13;4990993;28;20451;-63
2023/04/22 09:01:52;;;;;;;4.43;2.53;;;;;;;-143.84;35.93;45071.91;4990888;28;20587;-63
2023/04/22 09:04:21;;;;;;;12.30;2.13;;;;;;;-143.84;37.45;45030.03;4990898;28;21008;-63
2023/04/22 09:06:48;;;;;;;6.63;2.03;;;;;;;-143.84;36.60;45081.44;4991140;28;20449;-63
2023/04/22 09:09:16;;;;;;;13.43;2.60;;;;;;;-143.84;36.77;45028.13;4989850;28;21254;-63
2023/04/22 09:11:43;;;;;;;7.10;1.90;;;;;;;-143.84;36.39;45045.25;4989713;28;20486;-63
2023/04/22 09:14:10;;;;;;;13.53;2.40;;;;;;;-143.84;36.91;45054.78;4990570;28;20498;-63
2023/04/22 09:16:42;;;;;;;4.90;2.00;;;;;;;-143.84;37.10;45050.97;4989656;28;20959;-63
2023/04/22 09:19:12;;;;;;;14.60;2.67;;;;;;;-143.84;36.43;45041.44;4989982;28;20514;-63
2023/04/22 09:21:41;;;;;;;6.03;2.30;;;;;;;-143.84;36.72;45039.53;4990167;28;21040;-62
2023/04/22 09:24:10;;;;;;;8.45;2.25;;;;;;;-143.84;37.18;45062.41;4990567;28;20451;-63
2023/04/22 09:26:40;;;;;;;23.17;4.43;;;;;;;-143.84;37.60;45050.97;4990601;28;20197;-63
2023/04/22 09:29:09;;;;;;;10.80;1.97;;;;;;;-143.84;38.23;45043.34;4990634;28;20462;-63
2023/04/22 09:31:37;;;;;;;10.80;2.63;;;;;;;-143.84;36.42;45058.59;4990376;28;20490;-63
2023/04/22 09:34:04;;;;;;;6.10;1.80;;;;;;;-143.84;36.67;45062.41;4990407;28;20447;-63
2023/04/22 09:36:36;;;;;;;13.10;3.07;;;;;;;-143.84;36.25;45058.59;4989959;28;20507;-63
2023/04/22 09:39:06;;;;;;;12.60;2.67;;;;;;;-143.84;36.04;45033.84;4990370;28;20499;-63
2023/04/22 09:41:35;;;;;;;7.03;2.30;;;;;;;-143.84;36.26;45037.66;4990207;28;20568;-63
2023/04/22 09:44:04;;;;;;;4.33;1.93;;;;;;;-143.84;36.00;45054.78;4990233;28;20526;-63
2023/04/22 09:46:33;;;;;;;16.73;2.90;;;;;;;-143.84;34.98;45033.84;4989863;28;20444;-63
2023/04/22 09:49:01;;;;;;;8.47;1.80;;;;;;;-143.84;35.58;45066.22;4990099;28;20472;-62
2023/04/22 09:51:29;;;;;;;7.73;1.90;;;;;;;-143.84;35.55;45056.69;4989695;28;20475;-63
2023/04/22 09:54:01;;;;;;;6.50;1.73;;;;;;;-143.84;35.30;45052.88;4990017;28;21013;-63
2023/04/22 09:56:43;;;;;;;6.97;2.00;;;;;;;-143.84;37.09;45045.25;4989877;28;20440;-63
2023/04/22 09:59:11;;;;;;;12.13;2.07;;;;;;;-143.84;38.28;45062.41;4989838;28;20456;-63
2023/04/22 10:01:39;;;;;;;3.63;1.80;;;;;;;-143.84;36.94;45028.13;4990245;28;20443;-63
2023/04/22 10:04:08;;;;;;;6.60;1.63;;;;;;;-143.84;35.45;45041.44;4989539;28;20505;-63
2023/04/22 10:06:36;;;;;;;6.43;2.00;;;;;;;-143.84;35.41;45070.00;4989625;28;20662;-63
2023/04/22 10:09:04;;;;;;;6.00;1.87;;;;;;;-143.84;35.67;45073.81;4989680;28;20457;-63
2023/04/22 10:11:31;;;;;;;6.87;2.17;;;;;;;-143.84;36.53;45081.44;4989494;28;20571;-63
2023/04/22 10:14:00;;;;;;;10.10;2.27;;;;;;;-143.84;37.70;45041.44;4989705;28;21284;-62
2023/04/22 10:16:30;;;;;;;5.97;2.50;;;;;;;-143.84;37.33;45062.41;4989782;28;20464;-62
2023/04/22 10:19:00;;;;;;;12.03;1.50;;;;;;;-143.84;36.50;45064.31;4989546;28;20482;-62
2023/04/22 10:21:31;;;;;;;13.93;2.37;;;;;;;-143.84;36.89;45075.72;4989428;28;20461;-62
2023/04/22 10:23:59;;;;;;;10.75;2.28;;;;;;;-143.84;37.19;45071.91;4989528;28;20445;-62
2023/04/22 10:26:40;;;;;;;7.03;2.22;;;;;;;-143.84;37.36;45045.25;4989650;28;20595;-62
2023/04/22 10:29:09;;;;;;;4.17;1.80;;;;;;;-143.84;36.28;45075.72;4989775;28;21048;-62
2023/04/22 10:31:38;;;;;;;10.10;2.53;;;;;;;-143.84;35.93;45047.16;4989348;28;20519;-62
2023/04/22 10:34:13;;;;;;;13.20;4.93;;;;;;;-143.84;36.56;45050.97;4989396;28;20440;-62
2023/04/22 10:36:54;;;;;;;10.40;2.20;;;;;;;-143.84;36.25;45050.97;4989469;28;20432;-62
2023/04/22 10:39:22;;;;;;;6.00;1.90;;;;;;;-143.84;36.13;45035.75;4989138;28;20447;-62
2023/04/22 10:41:54;;;;;;;10.23;3.20;;;;;;;-143.84;34.94;45047.16;4989508;28;20444;-62
2023/04/22 10:44:27;;;;;;;11.10;2.50;;;;;;;-143.84;35.42;45062.41;4989913;28;20439;-62
2023/04/22 10:47:01;;;;;;;9.37;2.40;;;;;;;-143.84;34.97;45045.25;4990535;28;20474;-62
2023/04/22 10:49:33;;;;;;;7.40;1.93;;;;;;;-143.84;34.87;45073.81;4993220;28;20445;-62
2023/04/22 10:52:02;;;;;;;8.73;2.80;;;;;;;-143.84;35.96;45068.13;4993195;28;21028;-62
2023/04/22 10:55:00;;;;;;;21.25;8.65;;;;;;;-143.84;37.10;45094.78;4993063;28;20502;-62
2023/04/22 10:57:38;;;;;;;4.97;2.07;;;;;;;-143.84;36.11;45070.00;4993037;28;20204;-62
2023/04/22 11:00:23;;;;;;;8.40;2.37;;;;;;;-143.84;35.56;45070.00;4993091;28;20483;-62
2023/04/22 11:03:06;;;;;;;7.23;3.00;;;;;;;-143.84;36.67;45060.50;4991728;28;20476;-62
2023/04/22 11:05:34;;;;;;;5.70;2.20;;;;;;;-143.84;37.12;45020.50;4992866;28;20817;-62
2023/04/22 11:08:03;;;;;;;11.33;2.90;;;;;;;-143.84;37.41;45066.22;4993022;28;20471;-62
2023/04/22 11:10:39;;;;;;;8.07;4.30;;;;;;;-143.84;37.13;45043.34;4992977;28;20964;-62
2023/04/22 11:13:07;;;;;;;9.30;2.57;;;;;;;-143.84;37.06;45071.91;4992874;28;20459;-62
2023/04/22 11:15:38;;;;;;;8.83;1.73;;;;;;;-143.84;35.76;45079.53;4992790;28;20440;-62
2023/04/22 11:18:10;;;;;;;7.43;2.27;;;;;;;-143.84;35.57;45056.69;4992643;28;20495;-62